PWSweather.com
Personal Weather Stations
Station Observations
UISISLE1
Newport, Isle ofWight, ISLE OF WIGHT PO30 2JX

NewportIsle ofWight, ISLE OF WIGHT PO30 2JX

Lat: 50.72, Lon: -1.27

Elevation: 45

Station Type: Davis Vantage Pro Plus

http://www.isleofwightweather.co.uk

High Low Average
Temperature 47.4°F8.6°C 43.4°F6.3°C 45.3°F7.4°C
Dew Point 44.3°F6.8°C 39.2°F4.0°C 41.4°F5.2°C
Winds 14.5 mph 23.3 kmh Calm Calm 8.0 mph WSW12.9 kmh WSW
Wind Gusts 20.0 mph32.2 kmh -- 11.0 mph17.7 kmh
Humidity 94% 80% 86%
Pressure 29.89 in1012.2 mb 29.41 in995.9 mb -
Precipitation 0.18 in4.6 mm - -
Hour Temp Dew Point Humidity Winds Wind Gusts Pressure Precip Precip Rate Daily Precip Total
12:00 AM 43.7°F6.5°C 39.5°F4.2°C 85% 7.2 mph WSW11.6 kmh WSW 10.3 mph16.6 kmh 29.57 in1001.4 mb - 0.00 in0.0 mm 0.00 in0.0 mm
12:15 AM 43.4°F6.3°C 39.8°F4.3°C 87% 6.3 mph WSW10.1 kmh WSW 12.0 mph19.3 kmh 29.57 in1001.4 mb - 0.00 in0.0 mm 0.00 in0.0 mm
12:30 AM 43.4°F6.3°C 40.1°F4.5°C 88% 6.3 mph W10.1 kmh W 7.2 mph11.6 kmh 29.58 in1001.7 mb - 0.00 in0.0 mm 0.00 in0.0 mm
12:45 AM 43.5°F6.4°C 40.5°F4.7°C 89% 4.3 mph WSW6.9 kmh WSW 8.0 mph12.9 kmh 29.58 in1001.7 mb - 0.00 in0.0 mm 0.00 in0.0 mm
01:00 AM 43.7°F6.5°C 41.0°F5.0°C 90% 5.6 mph WSW9.0 kmh WSW 7.0 mph11.3 kmh 29.58 in1001.7 mb - 0.00 in0.0 mm 0.00 in0.0 mm
01:15 AM 44.1°F6.7°C 41.3°F5.2°C 90% 6.5 mph WSW10.5 kmh WSW 10.3 mph16.6 kmh 29.58 in1001.7 mb - 0.00 in0.0 mm 0.00 in0.0 mm
01:30 AM 44.7°F7.1°C 41.7°F5.4°C 89% 9.0 mph W14.5 kmh W 14.4 mph23.2 kmh 29.58 in1001.7 mb - 0.01 in0.3 mm 0.01 in0.3 mm
01:45 AM 44.9°F7.2°C 41.3°F5.2°C 87% 11.3 mph WSW18.2 kmh WSW 11.3 mph18.2 kmh 29.59 in1002.0 mb - 0.00 in0.0 mm 0.01 in0.3 mm
02:00 AM 45.0°F7.2°C 41.1°F5.1°C 86% 13.0 mph WSW20.9 kmh WSW 16.5 mph26.6 kmh 29.59 in1002.0 mb - 0.00 in0.0 mm 0.01 in0.3 mm
02:15 AM 45.0°F7.2°C 40.5°F4.7°C 84% 11.6 mph W18.7 kmh W 14.4 mph23.2 kmh 29.60 in1002.4 mb - 0.00 in0.0 mm 0.01 in0.3 mm
02:30 AM 44.8°F7.1°C 40.3°F4.6°C 84% 8.4 mph W13.5 kmh W 13.0 mph20.9 kmh 29.60 in1002.4 mb - 0.00 in0.0 mm 0.01 in0.3 mm
02:45 AM 44.2°F6.8°C 40.0°F4.4°C 85% 6.9 mph W11.1 kmh W 12.0 mph19.3 kmh 29.60 in1002.4 mb - 0.00 in0.0 mm 0.01 in0.3 mm
03:00 AM 43.6°F6.4°C 39.4°F4.1°C 85% 8.3 mph W13.4 kmh W 13.0 mph20.9 kmh 29.59 in1002.0 mb - 0.00 in0.0 mm 0.01 in0.3 mm
03:15 AM 43.4°F6.3°C 39.2°F4.0°C 85% 4.8 mph WSW7.7 kmh WSW 7.0 mph11.3 kmh 29.59 in1002.0 mb - 0.00 in0.0 mm 0.01 in0.3 mm
03:30 AM 43.5°F6.4°C 39.9°F4.4°C 87% 5.4 mph W8.7 kmh W 8.0 mph12.9 kmh 29.59 in1002.0 mb - 0.00 in0.0 mm 0.01 in0.3 mm
03:45 AM 43.7°F6.5°C 40.4°F4.7°C 88% 6.1 mph WNW9.8 kmh WNW 11.0 mph17.7 kmh 29.59 in1002.0 mb - 0.00 in0.0 mm 0.01 in0.3 mm
04:00 AM 44.3°F6.8°C 41.3°F5.2°C 89% 5.8 mph WSW9.3 kmh WSW 13.4 mph21.6 kmh 29.59 in1002.0 mb - 0.00 in0.0 mm 0.01 in0.3 mm
04:15 AM 44.7°F7.1°C 41.4°F5.2°C 88% 8.1 mph WSW13.0 kmh WSW 9.0 mph14.5 kmh 29.59 in1002.0 mb - 0.00 in0.0 mm 0.01 in0.3 mm
04:30 AM 45.1°F7.3°C 41.8°F5.4°C 88% 10.2 mph SW16.4 kmh SW 20.0 mph32.2 kmh 29.58 in1001.7 mb - 0.00 in0.0 mm 0.01 in0.3 mm
04:45 AM 45.3°F7.4°C 41.3°F5.2°C 86% 7.1 mph W11.4 kmh W 11.0 mph17.7 kmh 29.58 in1001.7 mb - 0.00 in0.0 mm 0.01 in0.3 mm
05:00 AM 45.4°F7.4°C 41.4°F5.2°C 86% 9.4 mph SW15.1 kmh SW 13.4 mph21.6 kmh 29.57 in1001.4 mb - 0.00 in0.0 mm 0.01 in0.3 mm
05:15 AM 45.5°F7.5°C 41.2°F5.1°C 85% 6.9 mph W11.1 kmh W 10.0 mph16.1 kmh 29.57 in1001.4 mb - 0.00 in0.0 mm 0.01 in0.3 mm
05:30 AM 45.5°F7.5°C 41.3°F5.2°C 85% 7.8 mph SW12.6 kmh SW 13.0 mph20.9 kmh 29.56 in1001.0 mb - 0.00 in0.0 mm 0.01 in0.3 mm
05:45 AM 45.5°F7.5°C 41.3°F5.2°C 85% 8.7 mph WSW14.0 kmh WSW 12.0 mph19.3 kmh 29.55 in1000.7 mb - 0.00 in0.0 mm 0.01 in0.3 mm
06:00 AM 45.7°F7.6°C 41.1°F5.1°C 84% 5.6 mph WSW9.0 kmh WSW 8.0 mph12.9 kmh 29.55 in1000.7 mb - 0.00 in0.0 mm 0.01 in0.3 mm
06:15 AM 46.0°F7.8°C 41.4°F5.2°C 84% 6.6 mph WSW10.6 kmh WSW 11.0 mph17.7 kmh 29.53 in1000.0 mb - 0.00 in0.0 mm 0.01 in0.3 mm
06:30 AM 46.3°F7.9°C 41.4°F5.2°C 83% 4.7 mph WSW7.6 kmh WSW 7.0 mph11.3 kmh 29.52 in999.7 mb - 0.00 in0.0 mm 0.01 in0.3 mm
06:45 AM 46.4°F8.0°C 41.5°F5.3°C 83% 4.4 mph SW7.1 kmh SW 8.0 mph12.9 kmh 29.51 in999.3 mb - 0.00 in0.0 mm 0.01 in0.3 mm
07:00 AM 46.4°F8.0°C 41.5°F5.3°C 83% 2.3 mph SSW3.7 kmh SSW 6.0 mph9.7 kmh 29.50 in999.0 mb - 0.00 in0.0 mm 0.01 in0.3 mm
07:15 AM 46.6°F8.1°C 42.0°F5.6°C 84% 3.5 mph SW5.6 kmh SW 8.0 mph12.9 kmh 29.48 in998.3 mb - 0.00 in0.0 mm 0.01 in0.3 mm
07:30 AM 46.8°F8.2°C 42.8°F6.0°C 86% 3.9 mph SW6.3 kmh SW 7.0 mph11.3 kmh 29.47 in998.0 mb - 0.00 in0.0 mm 0.01 in0.3 mm
07:45 AM 47.0°F8.3°C 43.0°F6.1°C 86% 4.4 mph SW7.1 kmh SW 7.0 mph11.3 kmh 29.46 in997.6 mb - 0.00 in0.0 mm 0.01 in0.3 mm
08:00 AM 47.2°F8.4°C 43.2°F6.2°C 86% 3.8 mph SW6.1 kmh SW 6.0 mph9.7 kmh 29.45 in997.3 mb - 0.00 in0.0 mm 0.01 in0.3 mm
08:15 AM 47.2°F8.4°C 43.2°F6.2°C 86% 5.9 mph SSW9.5 kmh SSW 8.0 mph12.9 kmh 29.44 in997.0 mb - 0.00 in0.0 mm 0.01 in0.3 mm
08:30 AM 47.3°F8.5°C 43.6°F6.4°C 87% 4.7 mph WSW7.6 kmh WSW 9.0 mph14.5 kmh 29.44 in997.0 mb - 0.00 in0.0 mm 0.01 in0.3 mm
08:45 AM 47.4°F8.6°C 44.3°F6.8°C 89% 7.8 mph SW12.6 kmh SW 10.0 mph16.1 kmh 29.43 in996.6 mb - 0.02 in0.5 mm 0.02 in0.5 mm
09:00 AM 46.8°F8.2°C 43.7°F6.5°C 89% 6.0 mph WSW9.7 kmh WSW 9.0 mph14.5 kmh 29.43 in996.6 mb - 0.02 in0.5 mm 0.03 in0.8 mm
09:15 AM 46.1°F7.8°C 43.0°F6.1°C 89% 4.9 mph SW7.9 kmh SW 8.0 mph12.9 kmh 29.43 in996.6 mb - 0.00 in0.0 mm 0.03 in0.8 mm
09:30 AM 45.5°F7.5°C 42.5°F5.8°C 89% 3.9 mph SW6.3 kmh SW 10.0 mph16.1 kmh 29.43 in996.6 mb - 0.01 in0.3 mm 0.04 in1.0 mm
09:45 AM 45.2°F7.3°C 42.4°F5.8°C 90% 4.1 mph SSW6.6 kmh SSW 5.0 mph8.0 kmh 29.42 in996.3 mb - 0.02 in0.5 mm 0.06 in1.5 mm
10:00 AM 45.0°F7.2°C 42.2°F5.7°C 90% 1.5 mph SSW2.4 kmh SSW 4.0 mph6.4 kmh 29.42 in996.3 mb - 0.02 in0.5 mm 0.08 in2.0 mm
10:15 AM 44.8°F7.1°C 42.3°F5.7°C 91% 0.5 mph SSW0.8 kmh SSW 2.0 mph3.2 kmh 29.43 in996.6 mb - 0.02 in0.5 mm 0.09 in2.3 mm
10:30 AM 44.7°F7.1°C 42.2°F5.7°C 91% 0.7 mph SSW1.1 kmh SSW 3.0 mph4.8 kmh 29.42 in996.3 mb - 0.02 in0.5 mm 0.12 in3.0 mm
10:45 AM 44.6°F7.0°C 42.1°F5.6°C 91% Calm Calm 1.0 mph1.6 kmh 29.42 in996.3 mb - 0.02 in0.5 mm 0.13 in3.3 mm
11:00 AM 44.6°F7.0°C 42.4°F5.8°C 92% 0.8 mph SW1.3 kmh SW 3.0 mph4.8 kmh 29.41 in995.9 mb - 0.02 in0.5 mm 0.14 in3.6 mm
11:15 AM 44.6°F7.0°C 42.4°F5.8°C 92% 1.4 mph SSW2.3 kmh SSW 1.0 mph1.6 kmh 29.41 in995.9 mb - 0.01 in0.3 mm 0.14 in3.6 mm
11:30 AM 44.4°F6.9°C 42.2°F5.7°C 92% 0.5 mph SW0.8 kmh SW -- 29.41 in995.9 mb - 0.02 in0.5 mm 0.16 in4.1 mm
11:45 AM 44.2°F6.8°C 42.0°F5.6°C 92% 4.6 mph WNW7.4 kmh WNW 8.2 mph13.2 kmh 29.43 in996.6 mb - 0.01 in0.3 mm 0.17 in4.3 mm
12:00 PM 44.2°F6.8°C 42.3°F5.7°C 93% 0.5 mph NW0.8 kmh NW 4.1 mph6.6 kmh 29.43 in996.6 mb - 0.01 in0.3 mm 0.17 in4.3 mm
12:15 PM 44.4°F6.9°C 42.5°F5.8°C 93% 6.3 mph NW10.1 kmh NW 7.2 mph11.6 kmh 29.45 in997.3 mb - 0.01 in0.3 mm 0.18 in4.6 mm
12:30 PM 44.4°F6.9°C 42.5°F5.8°C 93% 4.1 mph NW6.6 kmh NW 4.1 mph6.6 kmh 29.45 in997.3 mb - 0.00 in0.0 mm 0.18 in4.6 mm
12:45 PM 44.2°F6.8°C 42.6°F5.9°C 94% 6.9 mph W11.1 kmh W 9.3 mph15.0 kmh 29.46 in997.6 mb - 0.00 in0.0 mm 0.18 in4.6 mm
01:00 PM 44.4°F6.9°C 42.8°F6.0°C 94% 4.0 mph W6.4 kmh W 8.2 mph13.2 kmh 29.46 in997.6 mb - 0.00 in0.0 mm 0.18 in4.6 mm
01:15 PM 44.6°F7.0°C 43.0°F6.1°C 94% 8.5 mph WNW13.7 kmh WNW 11.3 mph18.2 kmh 29.47 in998.0 mb - 0.00 in0.0 mm 0.18 in4.6 mm
01:30 PM 44.7°F7.1°C 43.1°F6.2°C 94% 6.0 mph WNW9.7 kmh WNW 8.0 mph12.9 kmh 29.47 in998.0 mb - 0.00 in0.0 mm 0.18 in4.6 mm
01:45 PM 44.7°F7.1°C 43.1°F6.2°C 94% 8.5 mph WNW13.7 kmh WNW 11.3 mph18.2 kmh 29.48 in998.3 mb - 0.00 in0.0 mm 0.18 in4.6 mm
02:00 PM 44.6°F7.0°C 43.0°F6.1°C 94% 5.2 mph WNW8.4 kmh WNW 12.4 mph20.0 kmh 29.49 in998.6 mb - 0.00 in0.0 mm 0.18 in4.6 mm
02:15 PM 44.6°F7.0°C 43.0°F6.1°C 94% 7.6 mph NW12.2 kmh NW 9.3 mph15.0 kmh 29.50 in999.0 mb - 0.00 in0.0 mm 0.18 in4.6 mm
02:30 PM 44.6°F7.0°C 43.0°F6.1°C 94% 10.3 mph W16.6 kmh W 13.4 mph21.6 kmh 29.51 in999.3 mb - 0.00 in0.0 mm 0.18 in4.6 mm
02:45 PM 44.9°F7.2°C 43.0°F6.1°C 93% 9.2 mph W14.8 kmh W 16.5 mph26.6 kmh 29.52 in999.7 mb - 0.00 in0.0 mm 0.18 in4.6 mm
03:00 PM 45.0°F7.2°C 42.5°F5.8°C 91% 11.9 mph WNW19.2 kmh WNW 14.4 mph23.2 kmh 29.53 in1000.0 mb - 0.00 in0.0 mm 0.18 in4.6 mm
03:15 PM 45.1°F7.3°C 42.3°F5.7°C 90% 8.2 mph W13.2 kmh W 10.3 mph16.6 kmh 29.54 in1000.3 mb - 0.00 in0.0 mm 0.18 in4.6 mm
03:30 PM 45.4°F7.4°C 42.7°F5.9°C 90% 8.5 mph WNW13.7 kmh WNW 11.3 mph18.2 kmh 29.55 in1000.7 mb - 0.00 in0.0 mm 0.18 in4.6 mm
03:45 PM 45.9°F7.7°C 42.6°F5.9°C 88% 10.1 mph W16.3 kmh W 17.0 mph27.4 kmh 29.56 in1001.0 mb - 0.00 in0.0 mm 0.18 in4.6 mm
04:00 PM 46.3°F7.9°C 42.4°F5.8°C 86% 13.1 mph NW21.1 kmh NW 18.5 mph29.8 kmh 29.58 in1001.7 mb - 0.00 in0.0 mm 0.18 in4.6 mm
04:15 PM 46.4°F8.0°C 41.9°F5.5°C 84% 14.5 mph NW23.3 kmh NW 19.0 mph30.6 kmh 29.59 in1002.0 mb - 0.00 in0.0 mm 0.18 in4.6 mm
04:30 PM 46.2°F7.9°C 41.3°F5.2°C 83% 11.1 mph W17.9 kmh W 18.5 mph29.8 kmh 29.61 in1002.7 mb - 0.00 in0.0 mm 0.18 in4.6 mm
04:45 PM 46.2°F7.9°C 41.3°F5.2°C 83% 11.4 mph NW18.3 kmh NW 18.5 mph29.8 kmh 29.62 in1003.0 mb - 0.00 in0.0 mm 0.18 in4.6 mm
05:00 PM 46.4°F8.0°C 41.5°F5.3°C 83% 7.3 mph W11.7 kmh W 10.3 mph16.6 kmh 29.62 in1003.0 mb - 0.00 in0.0 mm 0.18 in4.6 mm
05:15 PM 46.4°F8.0°C 41.5°F5.3°C 83% 12.7 mph WSW20.4 kmh WSW 17.5 mph28.2 kmh 29.62 in1003.0 mb - 0.00 in0.0 mm 0.18 in4.6 mm
05:30 PM 46.2°F7.9°C 41.0°F5.0°C 82% 8.5 mph WSW13.7 kmh WSW 11.3 mph18.2 kmh 29.64 in1003.7 mb - 0.00 in0.0 mm 0.18 in4.6 mm
05:45 PM 46.0°F7.8°C 40.8°F4.9°C 82% 10.1 mph WSW16.3 kmh WSW 19.0 mph30.6 kmh 29.65 in1004.1 mb - 0.00 in0.0 mm 0.18 in4.6 mm
06:00 PM 46.2°F7.9°C 41.0°F5.0°C 82% 12.9 mph WSW20.8 kmh WSW 18.5 mph29.8 kmh 29.66 in1004.4 mb - 0.00 in0.0 mm 0.18 in4.6 mm
06:15 PM 46.1°F7.8°C 40.6°F4.8°C 81% 8.1 mph WSW13.0 kmh WSW 13.4 mph21.6 kmh 29.67 in1004.7 mb - 0.00 in0.0 mm 0.18 in4.6 mm
06:30 PM 46.0°F7.8°C 40.5°F4.7°C 81% 12.0 mph WSW19.3 kmh WSW 19.6 mph31.5 kmh 29.68 in1005.1 mb - 0.00 in0.0 mm 0.18 in4.6 mm
06:45 PM 46.1°F7.8°C 40.6°F4.8°C 81% 10.0 mph WNW16.1 kmh WNW 19.0 mph30.6 kmh 29.69 in1005.4 mb - 0.00 in0.0 mm 0.18 in4.6 mm
07:00 PM 46.0°F7.8°C 40.5°F4.7°C 81% 9.5 mph WNW15.3 kmh WNW 17.5 mph28.2 kmh 29.70 in1005.8 mb - 0.00 in0.0 mm 0.18 in4.6 mm
07:15 PM 46.1°F7.8°C 40.2°F4.6°C 80% 10.6 mph WNW17.1 kmh WNW 11.3 mph18.2 kmh 29.72 in1006.4 mb - 0.00 in0.0 mm 0.18 in4.6 mm
07:30 PM 45.9°F7.7°C 40.1°F4.5°C 80% 9.0 mph WNW14.5 kmh WNW 13.4 mph21.6 kmh 29.73 in1006.8 mb - 0.00 in0.0 mm 0.18 in4.6 mm
07:45 PM 45.8°F7.7°C 40.3°F4.6°C 81% 10.9 mph W17.5 kmh W 13.4 mph21.6 kmh 29.74 in1007.1 mb - 0.00 in0.0 mm 0.18 in4.6 mm
08:00 PM 45.9°F7.7°C 40.1°F4.5°C 80% 11.2 mph W18.0 kmh W 16.5 mph26.6 kmh 29.75 in1007.5 mb - 0.00 in0.0 mm 0.18 in4.6 mm
08:15 PM 45.9°F7.7°C 40.1°F4.5°C 80% 10.3 mph W16.6 kmh W 14.4 mph23.2 kmh 29.76 in1007.8 mb - 0.00 in0.0 mm 0.18 in4.6 mm
08:30 PM 45.7°F7.6°C 39.9°F4.4°C 80% 9.6 mph WNW15.4 kmh WNW 17.5 mph28.2 kmh 29.76 in1007.8 mb - 0.00 in0.0 mm 0.18 in4.6 mm
08:45 PM 45.7°F7.6°C 39.9°F4.4°C 80% 9.9 mph WNW15.9 kmh WNW 15.5 mph24.9 kmh 29.78 in1008.5 mb - 0.00 in0.0 mm 0.18 in4.6 mm
09:00 PM 45.6°F7.6°C 39.8°F4.3°C 80% 12.1 mph W19.5 kmh W 17.5 mph28.2 kmh 29.80 in1009.1 mb - 0.00 in0.0 mm 0.18 in4.6 mm
09:15 PM 45.7°F7.6°C 39.9°F4.4°C 80% 8.8 mph WSW14.2 kmh WSW 14.4 mph23.2 kmh 29.80 in1009.1 mb - 0.00 in0.0 mm 0.18 in4.6 mm
09:30 PM 45.7°F7.6°C 40.2°F4.6°C 81% 12.0 mph WNW19.3 kmh WNW 15.5 mph24.9 kmh 29.82 in1009.8 mb - 0.00 in0.0 mm 0.18 in4.6 mm
09:45 PM 45.6°F7.6°C 40.1°F4.5°C 81% 12.4 mph WNW20.0 kmh WNW 18.5 mph29.8 kmh 29.82 in1009.8 mb - 0.00 in0.0 mm 0.18 in4.6 mm
10:00 PM 45.4°F7.4°C 39.9°F4.4°C 81% 7.8 mph WNW12.6 kmh WNW 13.0 mph20.9 kmh 29.83 in1010.2 mb - 0.00 in0.0 mm 0.18 in4.6 mm
10:15 PM 45.3°F7.4°C 40.1°F4.5°C 82% 10.8 mph W17.4 kmh W 16.5 mph26.6 kmh 29.84 in1010.5 mb - 0.00 in0.0 mm 0.18 in4.6 mm
10:30 PM 45.2°F7.3°C 40.0°F4.4°C 82% 8.7 mph WSW14.0 kmh WSW 13.0 mph20.9 kmh 29.85 in1010.8 mb - 0.00 in0.0 mm 0.18 in4.6 mm
10:45 PM 45.0°F7.2°C 39.8°F4.3°C 82% 8.4 mph W13.5 kmh W 15.5 mph24.9 kmh 29.85 in1010.8 mb - 0.00 in0.0 mm 0.18 in4.6 mm
11:00 PM 44.8°F7.1°C 39.6°F4.2°C 82% 8.9 mph WSW14.3 kmh WSW 14.4 mph23.2 kmh 29.86 in1011.2 mb - 0.00 in0.0 mm 0.18 in4.6 mm
11:15 PM 44.8°F7.1°C 39.6°F4.2°C 82% 10.7 mph WNW17.2 kmh WNW 16.0 mph25.7 kmh 29.88 in1011.9 mb - 0.00 in0.0 mm 0.18 in4.6 mm
11:30 PM 44.8°F7.1°C 40.0°F4.4°C 83% 9.9 mph WNW15.9 kmh WNW 17.5 mph28.2 kmh 29.89 in1012.2 mb - 0.00 in0.0 mm 0.18 in4.6 mm
11:45 PM 44.7°F7.1°C 39.5°F4.2°C 82% 11.1 mph WSW17.9 kmh WSW 13.4 mph21.6 kmh 29.89 in1012.2 mb - 0.00 in0.0 mm 0.18 in4.6 mm